»·PEaware :: N349ME KSNA-KBUR

N349ME :: KSNA-KBUR

FLIGHT INFORMATION

Flight Status: Arrived
Operator: Privately registered:
United States
More flights under this callsign
Pilot: Joe C. (32102)
Aircraft: CESSNA 172 SKYHAWK
(C172)
More flights by this aircraft type
Origin: KSNA John Wayne-Orange Co
United States
Destination: KBUR Bob Hope-Burbank
United States
More flights between these airports :: More routes between these airports
Route: SLI V23 POPPR SMO125 SMO SMO311 SILEX
File this flight plan on PilotEdge
Remarks:
Altitude:
(Current/Filed)
4,000ft
Speed:
(Current/Filed)
120kts
Departed: 10-Jan-21 10:30 AM
Arrived: 10-Jan-21 11:15 AM
Distance/Time
Traveled:
40nm/0:45
Distance/Time
To Go:
Arrived

Flight Plot

Page will automatically refresh every two minutes.


Map Options




Map Legend


Flown Route
Filed Route
Departure Airport
Arrival Airport
Navaid (VOR, NDB)
Fix

Horizontal Profiles

Position Reports

Time Latitude Longitude Heading Altitude Ground
Speed
10-Jan-21 10:17 33.669680 -117.868115 310 60ft 0kts
10-Jan-21 10:18 33.669680 -117.868115 310 60ft 0kts
10-Jan-21 10:19 33.669680 -117.868115 310 60ft 0kts
10-Jan-21 10:20 33.669680 -117.868115 310 60ft 0kts
10-Jan-21 10:21 33.669680 -117.868115 310 60ft 0kts
10-Jan-21 10:22 33.669680 -117.868115 310 60ft 0kts
10-Jan-21 10:23 33.669680 -117.868115 310 60ft 0kts
10-Jan-21 10:24 33.670136 -117.868774 309 60ft 0kts
10-Jan-21 10:25 33.671667 -117.868417 29 60ft 11kts
10-Jan-21 10:26 33.674938 -117.866533 27 60ft 16kts
10-Jan-21 10:27 33.679237 -117.863813 26 60ft 16kts
10-Jan-21 10:28 33.679871 -117.863565 334 60ft 0kts
10-Jan-21 10:29 33.677783 -117.865627 205 60ft 63kts
10-Jan-21 10:30 33.670639 -117.884707 290 785ft 88kts
10-Jan-21 10:31 33.680462 -117.916207 291 1314ft 108kts
10-Jan-21 10:32 33.671209 -117.950994 246 1747ft 116kts
10-Jan-21 10:33 33.656171 -117.986986 242 1918ft 125kts
10-Jan-21 10:34 33.643931 -118.021128 278 2493ft 93kts
10-Jan-21 10:35 33.658811 -118.044046 316 3071ft 96kts
10-Jan-21 10:36 33.678645 -118.068960 314 3577ft 107kts
10-Jan-21 10:37 33.699829 -118.096443 316 3901ft 117kts
10-Jan-21 10:38 33.722661 -118.126131 315 3920ft 115kts
10-Jan-21 10:39 33.742903 -118.153532 314 3922ft 107kts
10-Jan-21 10:40 33.762569 -118.180439 314 3922ft 106kts
10-Jan-21 10:41 33.782288 -118.207103 315 3922ft 106kts
10-Jan-21 10:42 33.802232 -118.233763 315 3854ft 111kts
10-Jan-21 10:43 33.822435 -118.260858 314 3839ft 106kts
10-Jan-21 10:45 33.842019 -118.287423 314 3840ft 106kts
10-Jan-21 10:46 33.866284 -118.306888 330 3839ft 105kts
10-Jan-21 10:47 33.889060 -118.328811 317 3839ft 106kts
10-Jan-21 10:48 33.909672 -118.354222 320 3839ft 105kts
10-Jan-21 10:49 33.931411 -118.377845 321 3840ft 105kts
10-Jan-21 10:50 33.953738 -118.400674 323 3841ft 104kts
10-Jan-21 10:51 33.976271 -118.422931 323 3844ft 103kts
10-Jan-21 10:52 33.998771 -118.444762 323 3846ft 103kts
10-Jan-21 10:53 34.020877 -118.467293 315 3846ft 104kts
10-Jan-21 10:54 34.040395 -118.492991 317 3843ft 103kts
10-Jan-21 10:55 34.064346 -118.511925 330 3843ft 102kts
10-Jan-21 10:56 34.088625 -118.529483 329 3843ft 102kts
10-Jan-21 10:57 34.112866 -118.547286 331 3845ft 102kts
10-Jan-21 10:58 34.137316 -118.564922 330 3845ft 102kts
10-Jan-21 10:58 34.157599 -118.580074 330 3845ft 102kts
10-Jan-21 10:59 34.181868 -118.597927 330 3846ft 102kts
10-Jan-21 11:00 34.205107 -118.617424 297 3848ft 104kts
10-Jan-21 11:02 34.200877 -118.659522 264 3851ft 108kts
10-Jan-21 11:03 34.187659 -118.654573 49 3799ft 103kts
10-Jan-21 11:03 34.199776 -118.630697 73 3516ft 92kts
10-Jan-21 11:04 34.198503 -118.604246 82 3619ft 76kts
10-Jan-21 11:05 34.199208 -118.576819 84 3295ft 84kts
10-Jan-21 11:06 34.199170 -118.548373 88 2877ft 83kts
10-Jan-21 11:07 34.199075 -118.521494 86 2870ft 80kts
10-Jan-21 11:08 34.198716 -118.494377 87 2815ft 81kts
10-Jan-21 11:09 34.198841 -118.466672 82 2391ft 84kts
10-Jan-21 11:10 34.197986 -118.439425 75 1963ft 78kts
10-Jan-21 11:11 34.198674 -118.412279 89 1545ft 83kts
10-Jan-21 11:12 34.198215 -118.386443 91 1119ft 71kts
10-Jan-21 11:13 34.197818 -118.364243 92 780ft 46kts
10-Jan-21 11:14 34.198582 -118.357940 354 780ft 0kts
10-Jan-21 11:15 34.200645 -118.358929 274 780ft 7kts

Navigation Log

Ident Type
Flight plan parsing failed, navigation log unavailable